Time;durP1;ratioP1;P1;durP2;ratioP2;P2;SDS_P1;SDS_P2;PMS_P1;PMS_P2;Temp;Humidity;BMP_temperature;BMP_pressure;BME280_temperature;BME280_humidity;BME280_pressure;Samples;Min_cycle;Max_cycle;Signal;HPM_P1;HPM_P2
2022/11/18 00:01:38;;;;;;;28.73;12.10;;;;;;;5.45;100.00;98822.97;4932642;29;20146;-46
2022/11/18 00:04:05;;;;;;;20.00;10.23;;;;;;;5.44;100.00;98824.16;4933484;29;20039;-42
2022/11/18 00:06:31;;;;;;;26.35;13.00;;;;;;;5.44;100.00;98832.38;4933324;29;20054;-41
2022/11/18 00:08:59;;;;;;;23.70;10.43;;;;;;;5.45;100.00;98831.22;4931910;29;20103;-42
2022/11/18 00:14:18;;;;;;;24.23;9.93;;;;;;;5.50;100.00;98844.69;4931665;29;20581;-41
2022/11/18 00:16:51;;;;;;;22.65;9.35;;;;;;;5.52;100.00;98845.13;4931065;29;20051;-42
2022/11/18 00:19:24;;;;;;;29.75;10.27;;;;;;;5.56;100.00;98855.38;4930798;29;20062;-41
2022/11/18 00:21:51;;;;;;;17.83;9.00;;;;;;;5.58;100.00;98856.63;4932747;29;20130;-41
2022/11/18 00:24:18;;;;;;;19.50;9.18;;;;;;;5.59;100.00;98863.69;4929351;29;20058;-42
2022/11/18 00:26:46;;;;;;;24.95;10.23;;;;;;;5.60;100.00;98856.25;4928719;29;20066;-41
2022/11/18 00:29:13;;;;;;;20.42;8.75;;;;;;;5.61;100.00;98868.84;4938736;29;20047;-41
2022/11/18 00:31:40;;;;;;;21.85;9.25;;;;;;;5.61;100.00;98864.16;4931347;29;20070;-42
2022/11/18 00:34:12;;;;;;;20.45;9.80;;;;;;;5.63;100.00;98866.53;4935470;29;20076;-43
2022/11/18 00:36:39;;;;;;;21.00;10.05;;;;;;;5.65;100.00;98872.44;4932554;29;20054;-42
2022/11/18 00:39:06;;;;;;;24.15;10.27;;;;;;;5.68;100.00;98874.47;4932608;29;20044;-42
2022/11/18 00:44:18;;;;;;;18.67;9.13;;;;;;;5.73;100.00;98883.22;4931453;29;20056;-42
2022/11/18 00:46:45;;;;;;;17.98;10.27;;;;;;;5.74;100.00;98886.78;4932928;29;20146;-41
2022/11/18 00:49:12;;;;;;;20.75;9.30;;;;;;;5.76;100.00;98884.47;4909849;29;20485;-41
2022/11/18 00:51:38;;;;;;;18.80;8.85;;;;;;;5.78;100.00;98884.88;4912311;29;20582;-43
2022/11/18 00:54:05;;;;;;;21.95;9.68;;;;;;;5.80;100.00;98891.63;4912231;29;20054;-43
2022/11/18 00:56:32;;;;;;;18.30;7.30;;;;;;;5.81;100.00;98890.47;4912388;29;20461;-48
2022/11/18 00:58:59;;;;;;;23.70;8.68;;;;;;;5.84;100.00;98891.69;4912633;29;20039;-42
2022/11/18 01:01:26;;;;;;;18.02;7.72;;;;;;;5.85;100.00;98898.84;4912633;29;21342;-43
2022/11/18 01:03:53;;;;;;;17.63;8.15;;;;;;;5.85;100.00;98898.84;4911919;29;20048;-45
2022/11/18 01:06:19;;;;;;;17.80;8.15;;;;;;;5.84;100.00;98903.50;4910178;29;22185;-44
2022/11/18 01:08:46;;;;;;;16.58;7.43;;;;;;;5.85;100.00;98899.59;4909437;29;20486;-43
2022/11/18 01:14:02;;;;;;;16.23;6.90;;;;;;;5.87;100.00;98907.50;4910080;29;20058;-42
2022/11/18 01:16:29;;;;;;;13.18;5.70;;;;;;;5.88;100.00;98920.06;4911393;29;20553;-42
2022/11/18 01:18:56;;;;;;;13.80;6.60;;;;;;;5.88;100.00;98909.06;4912006;29;20214;-42
2022/11/18 01:21:24;;;;;;;14.23;6.60;;;;;;;5.89;100.00;98919.72;4908365;29;20047;-41
2022/11/18 01:23:51;;;;;;;11.95;6.25;;;;;;;5.89;100.00;98911.47;4909335;29;20497;-44
2022/11/18 01:26:18;;;;;;;12.25;6.00;;;;;;;5.92;100.00;98920.94;4911539;29;20066;-41
2022/11/18 01:28:45;;;;;;;11.77;5.90;;;;;;;5.90;100.00;98918.56;4911056;29;20044;-42
2022/11/18 01:31:14;;;;;;;11.48;5.15;;;;;;;5.90;100.00;98920.53;4910568;29;21204;-43
2022/11/18 01:33:42;;;;;;;10.80;5.40;;;;;;;5.92;100.00;98920.94;4910710;29;20055;-43
2022/11/18 01:36:27;;;;;;;11.52;5.18;;;;;;;5.93;100.00;98922.56;4891212;29;20138;-46
2022/11/18 01:38:55;;;;;;;9.55;5.25;;;;;;;5.92;100.00;98924.50;4908065;29;20258;-44
2022/11/18 01:41:24;;;;;;;8.73;5.78;;;;;;;5.93;100.00;98922.56;4910560;29;20130;-44
2022/11/18 01:43:54;;;;;;;11.43;5.35;;;;;;;5.91;100.00;98925.63;4908675;29;20130;-43
2022/11/18 01:46:23;;;;;;;11.88;6.18;;;;;;;5.92;100.00;98929.19;4909828;29;20181;-44
2022/11/18 01:48:58;;;;;;;8.88;5.22;;;;;;;5.93;100.00;98933.53;4909509;29;20138;-49
2022/11/18 01:51:37;;;;;;;8.68;4.95;;;;;;;5.92;100.00;98942.91;4910102;29;20050;-44
2022/11/18 01:54:10;;;;;;;7.88;4.78;;;;;;;5.92;100.00;98927.25;4910686;29;20050;-42
2022/11/18 01:56:49;;;;;;;7.93;5.05;;;;;;;5.94;100.00;98924.13;4911632;29;20047;-44
2022/11/18 01:59:21;;;;;;;11.82;5.72;;;;;;;5.95;100.00;98929.28;4911258;29;20167;-44
2022/11/18 02:01:48;;;;;;;7.90;4.10;;;;;;;5.97;100.00;98931.66;4909480;29;20166;-47
2022/11/18 02:04:16;;;;;;;10.00;5.07;;;;;;;5.98;100.00;98925.00;4910125;29;20067;-41
2022/11/18 02:06:44;;;;;;;9.38;4.65;;;;;;;5.98;100.00;98941.50;4910180;29;20044;-45
2022/11/18 02:09:14;;;;;;;6.13;3.65;;;;;;;6.00;100.00;98928.19;4908378;29;20102;-42
2022/11/18 02:11:54;;;;;;;7.10;3.92;;;;;;;6.01;100.00;98935.28;4910702;29;20055;-41
2022/11/18 02:14:34;;;;;;;6.93;4.63;;;;;;;6.03;100.00;98927.47;4893360;29;20118;-44
2022/11/18 02:17:17;;;;;;;7.75;4.70;;;;;;;6.05;100.00;98936.16;4908431;29;20051;-41
2022/11/18 02:19:47;;;;;;;5.20;3.85;;;;;;;6.05;100.00;98936.16;4910129;29;20422;-41
2022/11/18 02:22:28;;;;;;;7.75;4.63;;;;;;;6.08;100.00;98935.44;4910001;29;20138;-46
2022/11/18 02:25:02;;;;;;;7.65;5.00;;;;;;;6.09;100.00;98937.00;4909851;29;20087;-44
2022/11/18 02:27:41;;;;;;;6.95;4.32;;;;;;;6.11;100.00;98931.97;4909957;29;22032;-44
2022/11/18 02:30:11;;;;;;;8.23;5.43;;;;;;;6.12;100.00;98936.28;4909733;29;20123;-41
2022/11/18 02:32:44;;;;;;;8.68;4.85;;;;;;;6.13;100.00;98937.91;4913024;29;20054;-41
2022/11/18 02:35:45;;;;;;;8.93;4.57;;;;;;;6.16;100.00;98948.19;4907199;29;20288;-48
2022/11/18 02:38:48;;;;;;;7.72;4.43;;;;;;;6.16;100.00;98944.63;4899804;29;20044;-44
2022/11/18 02:41:20;;;;;;;5.43;4.07;;;;;;;6.18;100.00;98956.84;4914637;29;20050;-48
2022/11/18 02:43:54;;;;;;;6.50;4.35;;;;;;;6.18;100.00;98948.59;4913712;29;20039;-44
2022/11/18 02:46:32;;;;;;;5.20;4.13;;;;;;;6.21;100.00;98958.06;4914741;29;20078;-42
2022/11/18 02:49:01;;;;;;;6.32;4.35;;;;;;;6.22;100.00;98948.69;4915562;29;20050;-42
2022/11/18 02:51:30;;;;;;;5.60;4.70;;;;;;;6.23;100.00;98959.31;4916834;29;20614;-42
2022/11/18 02:54:04;;;;;;;5.85;4.07;;;;;;;6.22;100.00;98963.22;4914442;29;21581;-43
2022/11/18 02:56:32;;;;;;;6.05;4.03;;;;;;;6.23;100.00;98948.31;4914873;29;20474;-42
2022/11/18 02:59:27;;;;;;;9.50;3.88;;;;;;;6.25;100.00;98956.22;4914733;29;20048;-42
2022/11/18 03:01:54;;;;;;;7.20;3.60;;;;;;;6.24;100.00;98955.41;4950933;23;20062;-43
2022/11/18 03:04:24;;;;;;;5.07;3.50;;;;;;;6.23;100.00;98944.78;4937176;28;20075;-49
2022/11/18 03:07:15;;;;;;;5.25;3.58;;;;;;;6.21;100.00;98953.38;4933412;28;20043;-47
2022/11/18 03:09:47;;;;;;;7.22;2.88;;;;;;;6.21;100.00;98969.06;4932443;28;20068;-43
2022/11/18 03:12:37;;;;;;;3.40;2.70;;;;;;;6.21;100.00;98971.81;4914876;29;20054;-46
2022/11/18 03:15:29;;;;;;;4.65;2.90;;;;;;;6.23;100.00;98969.50;4930325;28;20163;-44
2022/11/18 03:18:07;;;;;;;6.38;2.47;;;;;;;6.25;100.00;98967.22;4932433;28;20133;-42
2022/11/18 03:20:41;;;;;;;3.70;2.08;;;;;;;6.28;100.00;98964.53;4934225;29;20051;-43
2022/11/18 03:23:23;;;;;;;3.25;2.40;;;;;;;6.31;100.00;98958.31;4932402;29;20043;-43
2022/11/18 03:25:53;;;;;;;2.08;1.42;;;;;;;6.34;100.00;98967.78;4932445;29;20552;-43
2022/11/18 03:28:36;;;;;;;2.22;1.75;;;;;;;6.34;100.00;98967.78;4932965;29;21820;-43
2022/11/18 03:31:44;;;;;;;5.88;2.00;;;;;;;6.34;100.00;98976.03;4930300;28;21711;-43
2022/11/18 03:34:20;;;;;;;4.15;1.35;;;;;;;6.35;100.00;98977.63;4930655;28;20163;-45
2022/11/18 03:36:53;;;;;;;2.13;1.15;;;;;;;6.37;100.00;98976.13;4932367;28;20185;-46
2022/11/18 03:39:29;;;;;;;3.03;0.98;;;;;;;6.37;100.00;98984.34;4931745;28;20055;-46
2022/11/18 03:42:09;;;;;;;3.35;1.02;;;;;;;6.40;100.00;98989.13;4930411;29;20047;-49
2022/11/18 03:44:38;;;;;;;0.95;0.65;;;;;;;6.42;100.00;98986.81;4934257;28;20400;-45
2022/11/18 03:47:52;;;;;;;5.25;1.23;;;;;;;6.45;100.00;98994.34;4931700;28;20047;-45
2022/11/18 03:50:28;;;;;;;3.65;1.60;;;;;;;6.43;100.00;98982.13;4931098;28;20210;-43
2022/11/18 03:52:55;;;;;;;3.17;0.60;;;;;;;6.44;100.00;98992.75;4912312;29;20079;-42
2022/11/18 03:55:32;;;;;;;2.78;0.63;;;;;;;6.44;100.00;98992.75;4930656;28;20049;-43
2022/11/18 03:58:20;;;;;;;2.47;0.47;;;;;;;6.40;100.00;98991.88;4932192;28;20424;-46
2022/11/18 04:00:53;;;;;;;1.90;0.52;;;;;;;6.38;100.00;98985.16;4930762;29;20047;-44
2022/11/18 04:03:19;;;;;;;;;;;;;;;6.35;100.00;98994.94;4930792;28;20051;-45
2022/11/18 04:05:52;;;;;;;0.98;0.40;;;;;;;6.32;100.00;99001.13;4931036;28;19936;-42
2022/11/18 04:08:23;;;;;;;1.30;0.40;;;;;;;6.31;100.00;99002.28;4932197;28;20413;-43
2022/11/18 04:12:01;;;;;;;0.77;0.40;;;;;;;6.32;100.00;99005.84;4930807;28;21081;-46
2022/11/18 04:13:57;;;;;;;2.20;0.38;;;;;;;6.30;100.00;99019.91;4929774;28;20640;-45
2022/11/18 04:16:25;;;;;;;4.63;0.75;;;;;;;6.29;100.00;99018.34;4932105;29;20054;-44
2022/11/18 04:19:07;;;;;;;4.63;0.47;;;;;;;6.32;100.00;99027.81;4930755;28;20074;-47
2022/11/18 04:21:34;;;;;;;1.55;0.30;;;;;;;6.33;100.00;99030.19;4931002;28;20046;-49
2022/11/18 04:24:01;;;;;;;4.25;0.63;;;;;;;6.35;100.00;99038.09;4930800;29;20051;-44
2022/11/18 04:26:30;;;;;;;4.45;0.63;;;;;;;6.33;100.00;99032.94;4931391;29;20039;-45
2022/11/18 04:28:57;;;;;;;4.15;0.60;;;;;;;6.33;100.00;99043.94;4930319;28;20047;-43
2022/11/18 04:31:24;;;;;;;3.97;0.60;;;;;;;6.33;100.00;99040.41;4931930;28;20079;-44
2022/11/18 04:33:52;;;;;;;2.30;0.93;;;;;;;6.31;100.00;99054.50;4930779;29;20477;-44
2022/11/18 04:36:18;;;;;;;5.90;0.70;;;;;;;6.30;100.00;99050.13;4931325;28;20549;-43
2022/11/18 04:38:45;;;;;;;3.83;0.90;;;;;;;6.28;100.00;99055.22;4935982;28;20043;-46
2022/11/18 04:41:12;;;;;;;5.38;0.77;;;;;;;6.27;100.00;99064.63;4914716;29;20051;-48
2022/11/18 04:43:40;;;;;;;11.93;2.55;;;;;;;6.28;100.00;99060.69;4931375;29;20039;-43
2022/11/18 04:46:07;;;;;;;7.80;2.00;;;;;;;6.28;100.00;99071.69;4931995;29;20114;-45
2022/11/18 04:48:34;;;;;;;2.10;0.68;;;;;;;6.27;100.00;99064.63;4931612;28;20139;-44
2022/11/18 04:51:04;;;;;;;5.13;1.10;;;;;;;6.27;100.00;99064.63;4931951;29;20425;-46
2022/11/18 04:53:31;;;;;;;2.83;0.82;;;;;;;6.26;100.00;99079.50;4931357;28;20194;-43
2022/11/18 04:56:07;;;;;;;9.65;1.25;;;;;;;6.26;100.00;99074.00;4931393;29;20054;-42
2022/11/18 04:58:33;;;;;;;1.45;0.73;;;;;;;6.24;100.00;99081.03;4931613;28;20147;-45
2022/11/18 05:01:00;;;;;;;5.22;0.90;;;;;;;6.22;100.00;99089.63;4931497;29;20150;-43
2022/11/18 05:03:27;;;;;;;8.85;1.23;;;;;;;6.22;100.00;99088.81;4928876;28;20125;-45
2022/11/18 05:05:54;;;;;;;10.88;2.53;;;;;;;6.19;100.00;99084.84;4930491;28;20059;-45
2022/11/18 05:08:21;;;;;;;4.07;1.13;;;;;;;6.18;100.00;99094.22;4932465;29;21931;-44
2022/11/18 05:10:47;;;;;;;9.20;1.15;;;;;;;6.17;100.00;99098.13;4929173;29;21370;-43
2022/11/18 05:13:14;;;;;;;5.18;0.98;;;;;;;6.17;100.00;99103.63;4927722;29;20058;-47
2022/11/18 05:15:41;;;;;;;9.75;2.22;;;;;;;6.17;100.00;99106.38;4928752;28;20043;-44
2022/11/18 05:18:10;;;;;;;5.93;1.00;;;;;;;6.16;100.00;99110.28;4928638;29;20054;-44
2022/11/18 05:20:37;;;;;;;3.78;0.82;;;;;;;6.17;100.00;99111.09;4930528;29;20039;-45
2022/11/18 05:23:07;;;;;;;5.85;1.23;;;;;;;6.19;100.00;99119.75;4930905;29;20046;-47
2022/11/18 05:25:34;;;;;;;2.55;1.02;;;;;;;6.20;100.00;99111.16;4930149;28;20047;-47
2022/11/18 05:28:01;;;;;;;3.28;1.00;;;;;;;6.20;100.00;99119.38;4928461;28;20182;-46
2022/11/18 05:30:28;;;;;;;7.20;1.10;;;;;;;6.20;100.00;99122.13;4911782;29;20055;-44
2022/11/18 05:32:55;;;;;;;10.20;1.42;;;;;;;6.17;100.00;99120.09;4933553;28;20138;-42
2022/11/18 05:35:22;;;;;;;9.60;0.88;;;;;;;6.18;100.00;99126.41;4911994;29;20051;-42
2022/11/18 05:37:49;;;;;;;7.65;1.40;;;;;;;6.20;100.00;99135.88;4927788;28;20057;-46
2022/11/18 05:40:16;;;;;;;6.97;1.75;;;;;;;6.23;100.00;99134.38;4909624;29;20371;-45
2022/11/18 05:45:28;;;;;;;6.55;1.27;;;;;;;6.19;100.00;99134.31;4927369;28;20047;-49
2022/11/18 05:47:59;;;;;;;8.55;1.40;;;;;;;6.15;100.00;99138.91;4912028;28;20101;-46
2022/11/18 05:50:26;;;;;;;3.92;1.10;;;;;;;6.09;100.00;99149.34;4929894;28;20503;-51
2022/11/18 05:52:53;;;;;;;9.57;1.85;;;;;;;6.04;100.00;99144.13;4929455;29;20891;-43
2022/11/18 05:55:22;;;;;;;6.63;3.17;;;;;;;6.00;100.00;99159.72;4929404;29;20054;-43
2022/11/18 05:57:49;;;;;;;5.90;0.77;;;;;;;5.99;100.00;99140.84;4930694;28;20398;-47
2022/11/18 06:00:16;;;;;;;7.78;1.65;;;;;;;5.95;100.00;99145.47;4930016;28;20061;-44
2022/11/18 06:02:46;;;;;;;9.60;2.55;;;;;;;5.91;100.00;99139.88;4928095;28;20992;-42
2022/11/18 06:05:13;;;;;;;5.43;2.13;;;;;;;5.89;100.00;99141.38;4932379;29;20576;-43
2022/11/18 06:07:42;;;;;;;6.15;1.30;;;;;;;5.86;100.00;99153.06;4930881;29;20083;-42
2022/11/18 06:10:27;;;;;;;8.43;1.30;;;;;;;5.82;100.00;99163.94;4928041;28;20049;-42
2022/11/18 06:12:58;;;;;;;11.88;1.45;;;;;;;5.79;100.00;99161.09;4930196;28;20054;-43
2022/11/18 06:15:30;;;;;;;7.07;1.90;;;;;;;5.74;100.00;99162.16;4933676;29;20040;-43
2022/11/18 06:18:28;;;;;;;6.45;2.97;;;;;;;5.71;100.00;99159.31;4934713;28;20054;-45
2022/11/18 06:20:59;;;;;;;7.45;1.10;;;;;;;5.70;100.00;99171.41;4922645;29;20137;-42
2022/11/18 06:23:29;;;;;;;6.47;1.20;;;;;;;5.69;100.00;99175.34;4934420;28;20158;-42
2022/11/18 06:25:56;;;;;;;10.55;1.83;;;;;;;5.70;100.00;99171.41;4934724;29;20058;-44
2022/11/18 06:28:23;;;;;;;10.02;1.70;;;;;;;5.68;100.00;99179.22;4935599;29;20550;-44
2022/11/18 06:30:50;;;;;;;4.68;1.10;;;;;;;5.66;100.00;99176.03;4934699;29;20742;-43
2022/11/18 06:33:17;;;;;;;6.72;1.40;;;;;;;5.64;100.00;99183.81;4933395;28;20043;-43
2022/11/18 06:35:44;;;;;;;17.50;2.08;;;;;;;5.63;100.00;99193.19;4932373;29;20396;-45
2022/11/18 06:38:10;;;;;;;5.60;1.42;;;;;;;5.61;100.00;99201.00;4932538;28;20058;-45
2022/11/18 06:40:37;;;;;;;7.95;1.80;;;;;;;5.58;100.00;99197.00;4932872;28;20157;-44
2022/11/18 06:48:36;;;;;;;5.72;1.25;;;;;;;5.48;100.00;99214.75;4933040;29;20055;-44
2022/11/18 06:51:05;;;;;;;11.35;1.65;;;;;;;5.45;100.00;99220.94;4931104;28;20861;-43
2022/11/18 06:53:33;;;;;;;11.10;1.77;;;;;;;5.42;100.00;99210.69;4932378;28;20054;-42
2022/11/18 06:56:07;;;;;;;4.43;1.10;;;;;;;5.40;100.00;99212.94;4914417;29;20134;-43
2022/11/18 06:58:34;;;;;;;10.85;1.95;;;;;;;5.41;100.00;99230.22;4933011;28;20503;-43
2022/11/18 07:01:20;;;;;;;7.15;2.03;;;;;;;5.36;100.00;99224.97;4929992;28;20043;-44
2022/11/18 07:03:48;;;;;;;6.32;1.75;;;;;;;5.34;100.00;99241.00;4931695;28;20405;-43
2022/11/18 07:06:23;;;;;;;8.82;1.27;;;;;;;5.31;100.00;99237.00;4932414;28;20046;-46
2022/11/18 07:08:50;;;;;;;17.08;2.65;;;;;;;5.29;100.00;99238.50;4931172;28;20126;-45
2022/11/18 07:11:20;;;;;;;9.98;1.30;;;;;;;5.28;100.00;99242.38;4932432;28;20523;-43
2022/11/18 07:13:47;;;;;;;5.43;1.23;;;;;;;5.25;100.00;99246.59;4930673;28;20235;-43
2022/11/18 07:16:16;;;;;;;10.35;1.40;;;;;;;5.22;100.00;99249.22;4930154;28;20053;-45
2022/11/18 07:18:45;;;;;;;10.43;1.70;;;;;;;5.21;100.00;99242.16;4913259;29;20051;-42
2022/11/18 07:21:17;;;;;;;6.68;1.25;;;;;;;5.19;100.00;99245.25;4931949;29;20074;-43
2022/11/18 07:23:45;;;;;;;8.05;1.42;;;;;;;5.17;100.00;99242.06;4931214;29;20055;-43
2022/11/18 07:26:13;;;;;;;5.57;1.55;;;;;;;5.16;100.00;99245.16;4931273;28;20406;-42
2022/11/18 07:28:41;;;;;;;7.57;1.27;;;;;;;5.14;100.00;99248.22;4930927;29;20047;-42
2022/11/18 07:31:11;;;;;;;17.60;3.25;;;;;;;5.12;100.00;99256.00;4942106;28;20071;-42
2022/11/18 07:33:39;;;;;;;6.57;1.30;;;;;;;5.09;100.00;99253.94;4947988;28;20077;-45
2022/11/18 07:36:11;;;;;;;9.20;1.50;;;;;;;5.06;100.00;99267.53;4933633;29;20441;-43
2022/11/18 07:38:39;;;;;;;9.65;2.35;;;;;;;5.04;100.00;99254.19;4948495;28;20074;-42
2022/11/18 07:41:16;;;;;;;7.15;1.75;;;;;;;5.01;100.00;99263.09;4949622;28;20039;-43
2022/11/18 07:43:45;;;;;;;5.15;1.00;;;;;;;4.99;100.00;99259.91;4952633;29;20747;-42
2022/11/18 07:46:26;;;;;;;3.03;0.90;;;;;;;4.98;100.00;99271.22;4953376;28;20083;-42
2022/11/18 07:48:55;;;;;;;10.45;3.63;;;;;;;4.98;100.00;99268.50;4951696;29;20071;-43
2022/11/18 07:51:24;;;;;;;8.68;1.70;;;;;;;4.96;100.00;99274.31;4935148;29;20394;-45
2022/11/18 07:53:51;;;;;;;4.03;1.13;;;;;;;4.93;100.00;99286.75;4952893;29;20452;-43
2022/11/18 07:56:19;;;;;;;19.13;2.97;;;;;;;4.93;100.00;99294.19;4952523;29;20405;-43
2022/11/18 07:58:47;;;;;;;8.60;1.13;;;;;;;4.91;100.00;99296.47;4953172;28;20075;-43
2022/11/18 08:01:16;;;;;;;8.43;1.58;;;;;;;4.89;100.00;99290.53;4949854;28;20051;-43
2022/11/18 08:03:43;;;;;;;7.50;1.60;;;;;;;4.86;100.00;99285.75;4948552;29;20126;-43
2022/11/18 08:06:12;;;;;;;8.93;1.20;;;;;;;4.85;100.00;99300.56;4951280;29;20126;-42
2022/11/18 08:08:39;;;;;;;8.40;1.23;;;;;;;4.81;100.00;99295.00;4949406;29;20105;-47
2022/11/18 08:11:10;;;;;;;10.40;1.55;;;;;;;4.81;100.00;99302.41;4950098;29;20158;-42
2022/11/18 08:13:37;;;;;;;10.48;1.52;;;;;;;4.79;100.00;99304.72;4950487;29;20053;-43
2022/11/18 08:16:12;;;;;;;10.13;1.20;;;;;;;4.76;100.00;99308.94;4947521;29;20105;-44
2022/11/18 08:18:39;;;;;;;11.38;3.58;;;;;;;4.74;100.00;99315.88;4952111;29;20062;-42
2022/11/18 08:21:06;;;;;;;4.53;1.30;;;;;;;4.73;100.00;99319.78;4944953;28;20424;-44
2022/11/18 08:23:33;;;;;;;13.05;1.92;;;;;;;4.71;100.00;99327.53;4946174;28;20083;-47
2022/11/18 08:26:14;;;;;;;7.93;1.45;;;;;;;4.67;100.00;99332.91;4948242;29;20505;-42
2022/11/18 08:28:42;;;;;;;8.18;2.22;;;;;;;4.66;99.99;99342.25;4950986;29;20060;-42
2022/11/18 08:31:15;;;;;;;10.55;2.70;;;;;;;4.64;100.00;99343.72;4948513;28;20047;-45
2022/11/18 08:33:42;;;;;;;14.85;2.50;;;;;;;4.63;100.00;99339.41;4948586;29;20085;-43
2022/11/18 08:36:21;;;;;;;9.00;1.52;;;;;;;4.59;100.00;99358.47;4917756;28;20077;-43
2022/11/18 08:38:48;;;;;;;9.75;2.53;;;;;;;4.58;100.00;99351.38;4948959;29;20082;-43
2022/11/18 08:41:26;;;;;;;7.15;1.20;;;;;;;4.58;99.63;99359.59;4951186;29;20059;-43
2022/11/18 08:43:55;;;;;;;8.30;1.80;;;;;;;4.59;100.00;99363.94;4951702;29;20057;-43
2022/11/18 08:46:22;;;;;;;8.02;1.35;;;;;;;4.59;99.94;99368.63;4934527;29;20052;-43
2022/11/18 08:48:48;;;;;;;10.25;1.52;;;;;;;4.61;99.72;99374.56;4949220;28;20705;-43
2022/11/18 08:51:15;;;;;;;8.32;1.50;;;;;;;4.61;99.47;99382.78;4950548;29;20083;-43
2022/11/18 08:53:43;;;;;;;7.57;1.63;;;;;;;4.60;99.63;99386.69;4950854;29;20370;-44
2022/11/18 08:56:16;;;;;;;5.05;1.83;;;;;;;4.60;99.38;99392.97;4951708;29;20043;-42
2022/11/18 08:58:43;;;;;;;10.85;1.63;;;;;;;4.60;99.30;99392.16;4951010;29;20040;-42
2022/11/18 09:01:11;;;;;;;7.20;1.80;;;;;;;4.62;99.03;99389.88;4951151;29;20040;-43
2022/11/18 09:03:38;;;;;;;7.43;1.65;;;;;;;4.64;99.17;99398.56;4950338;29;20062;-44
2022/11/18 09:06:08;;;;;;;11.82;3.97;;;;;;;4.66;99.08;99385.34;4951480;29;20070;-43
2022/11/18 09:08:36;;;;;;;9.30;1.67;;;;;;;4.67;99.18;99384.19;4951594;29;20146;-43
2022/11/18 09:11:07;;;;;;;5.35;1.10;;;;;;;4.69;98.84;99403.81;4946454;28;20401;-42
2022/11/18 09:13:34;;;;;;;7.40;1.40;;;;;;;4.72;98.63;99400.41;4942482;28;20073;-43
2022/11/18 09:16:23;;;;;;;5.80;1.48;;;;;;;4.73;98.87;99402.81;4947433;29;20055;-43
2022/11/18 09:18:56;;;;;;;7.35;1.20;;;;;;;4.76;98.46;99407.63;4950651;28;20522;-45
2022/11/18 09:21:24;;;;;;;7.22;1.85;;;;;;;4.76;98.36;99415.06;4931521;29;20066;-42
2022/11/18 09:23:51;;;;;;;14.70;2.50;;;;;;;4.79;98.45;99419.88;4947939;29;20047;-42
2022/11/18 09:26:22;;;;;;;8.57;1.30;;;;;;;4.82;98.47;99427.38;4945941;29;20146;-42
2022/11/18 09:28:52;;;;;;;5.07;1.10;;;;;;;4.88;98.24;99431.53;4950134;29;20548;-47
2022/11/18 09:31:19;;;;;;;6.32;1.50;;;;;;;4.93;98.30;99428.56;4947349;28;21439;-45
2022/11/18 09:33:46;;;;;;;13.60;3.25;;;;;;;4.99;98.00;99432.69;4947324;28;20057;-44
2022/11/18 09:36:17;;;;;;;5.20;1.20;;;;;;;5.05;98.10;99436.81;4949562;29;21427;-43
2022/11/18 09:38:45;;;;;;;6.35;1.48;;;;;;;5.11;97.84;99437.41;4937722;29;20056;-44
2022/11/18 09:41:40;;;;;;;5.10;1.23;;;;;;;5.17;97.79;99433.28;4949042;28;20126;-43
2022/11/18 09:44:38;;;;;;;9.55;1.85;;;;;;;5.20;97.57;99438.91;4947063;29;20042;-46
2022/11/18 09:47:28;;;;;;;8.48;1.55;;;;;;;5.23;97.24;99438.22;4949990;29;20107;-47
2022/11/18 09:49:59;;;;;;;7.53;1.58;;;;;;;5.25;97.08;99446.91;4945919;28;20580;-42
2022/11/18 09:53:23;;;;;;;11.25;1.42;;;;;;;5.28;96.78;99435.25;4946232;29;20130;-42
2022/11/18 09:55:51;;;;;;;10.02;1.00;;;;;;;5.31;97.00;99434.56;4868891;29;20942;-44
2022/11/18 09:58:33;;;;;;;8.00;1.65;;;;;;;5.33;96.63;99437.75;4934451;28;20070;-43
2022/11/18 10:01:00;;;;;;;8.83;1.23;;;;;;;5.38;96.66;99450.44;4947948;29;20082;-49
2022/11/18 10:03:30;;;;;;;9.70;1.55;;;;;;;5.41;96.33;99456.06;4948747;29;20106;-42
2022/11/18 10:06:02;;;;;;;10.25;1.50;;;;;;;5.45;96.27;99462.47;4945650;28;20054;-44
2022/11/18 10:08:37;;;;;;;8.80;1.27;;;;;;;5.47;96.24;99462.94;4933450;29;20142;-44
2022/11/18 10:11:15;;;;;;;4.82;1.55;;;;;;;5.50;95.95;99467.75;4949330;29;20078;-43
2022/11/18 10:14:00;;;;;;;6.18;1.27;;;;;;;5.52;95.92;99459.97;4932206;29;20085;-43
2022/11/18 10:16:47;;;;;;;9.50;1.83;;;;;;;5.56;95.68;99456.53;4945557;29;20047;-44
2022/11/18 10:19:39;;;;;;;6.97;1.23;;;;;;;5.59;95.58;99456.63;4948755;28;20070;-42
2022/11/18 10:22:26;;;;;;;6.97;1.40;;;;;;;5.63;95.53;99467.75;4948718;28;20653;-41
2022/11/18 10:24:55;;;;;;;11.05;1.77;;;;;;;5.66;95.37;99472.53;4944678;29;20042;-42
2022/11/18 10:27:26;;;;;;;11.68;1.65;;;;;;;5.70;95.50;99479.75;4948416;29;20055;-42
2022/11/18 10:29:56;;;;;;;8.05;1.25;;;;;;;5.75;95.12;99473.22;4945327;28;20409;-43
2022/11/18 10:32:23;;;;;;;8.88;2.08;;;;;;;5.79;94.84;99477.69;4948132;28;20078;-43
2022/11/18 10:34:58;;;;;;;7.30;1.75;;;;;;;5.83;95.00;99484.09;4948521;29;20045;-46
2022/11/18 10:37:36;;;;;;;6.25;1.33;;;;;;;5.88;94.79;99477.59;4949900;29;20123;-41
2022/11/18 10:40:26;;;;;;;4.65;1.20;;;;;;;5.90;94.38;99489.06;4937816;29;20031;-43
2022/11/18 10:42:53;;;;;;;6.72;1.17;;;;;;;5.94;94.57;99489.94;4949526;29;20489;-42
2022/11/18 10:45:20;;;;;;;6.78;1.17;;;;;;;5.97;94.25;99494.75;4949892;29;20150;-43
2022/11/18 10:48:17;;;;;;;6.80;2.03;;;;;;;6.00;93.99;99496.81;4947564;29;20448;-45
2022/11/18 10:50:49;;;;;;;5.78;1.83;;;;;;;6.05;93.67;99496.56;4939888;29;20054;-42
2022/11/18 10:53:33;;;;;;;3.53;1.10;;;;;;;6.08;93.65;99512.38;4949876;29;20505;-42
2022/11/18 10:56:06;;;;;;;5.28;1.17;;;;;;;6.13;93.58;99514.88;4929311;29;20046;-49
2022/11/18 10:58:51;;;;;;;5.03;1.52;;;;;;;6.17;93.40;99526.00;4948821;28;20049;-42
2022/11/18 11:01:24;;;;;;;8.98;2.40;;;;;;;6.20;93.32;99531.59;4948619;28;20079;-42
2022/11/18 11:03:51;;;;;;;;;;;;;;;6.23;93.00;99532.84;4947632;28;20158;-43
2022/11/18 11:06:36;;;;;;;7.55;1.35;;;;;;;6.27;92.90;99533.75;4951691;28;19948;-43
2022/11/18 11:09:21;;;;;;;8.13;1.67;;;;;;;6.30;92.75;99525.59;4953311;28;20055;-41
2022/11/18 11:11:55;;;;;;;3.63;1.17;;;;;;;6.34;92.98;99531.22;4950907;29;20462;-41
2022/11/18 11:14:36;;;;;;;6.35;1.10;;;;;;;6.40;93.15;99524.34;4952611;29;20035;-42
2022/11/18 11:17:11;;;;;;;4.10;1.23;;;;;;;6.44;92.90;99530.75;4952470;28;20058;-41
2022/11/18 11:20:05;;;;;;;4.15;1.02;;;;;;;6.49;92.77;99534.06;4950469;28;20631;-45
2022/11/18 11:22:32;;;;;;;3.58;1.83;;;;;;;6.54;92.62;99539.31;4931858;28;20138;-47
2022/11/18 11:24:59;;;;;;;6.80;1.63;;;;;;;6.60;92.64;99537.94;4951392;29;20134;-42
2022/11/18 11:27:42;;;;;;;7.20;1.10;;;;;;;6.64;92.44;99543.53;4951434;28;20058;-49
2022/11/18 11:30:34;;;;;;;2.90;1.23;;;;;;;6.70;92.27;99542.94;4942455;29;20043;-42
2022/11/18 11:33:18;;;;;;;10.80;2.10;;;;;;;6.75;92.09;99550.94;4952234;28;20070;-42
2022/11/18 11:36:00;;;;;;;8.45;1.83;;;;;;;6.80;92.01;99549.09;4952402;29;20047;-42
2022/11/18 11:38:50;;;;;;;4.95;1.33;;;;;;;6.86;91.75;99555.97;4948678;29;20053;-42
2022/11/18 11:41:28;;;;;;;4.45;1.42;;;;;;;6.92;91.57;99562.81;4922341;29;20048;-44
2022/11/18 11:43:58;;;;;;;3.83;0.93;;;;;;;6.97;91.44;99559.81;4951873;29;20375;-42
2022/11/18 11:49:52;;;;;;;10.10;1.38;;;;;;;7.10;91.02;99566.84;4927110;29;20083;-49
2022/11/18 11:52:32;;;;;;;5.63;1.52;;;;;;;7.13;90.80;99563.41;4928164;29;20066;-42
2022/11/18 11:55:20;;;;;;;9.68;1.60;;;;;;;7.17;90.69;99561.56;4941501;28;20149;-43
2022/11/18 11:57:57;;;;;;;5.45;0.98;;;;;;;7.22;90.50;99567.63;4941626;28;20047;-45
2022/11/18 12:00:24;;;;;;;6.50;1.13;;;;;;;7.26;90.31;99570.44;4949616;28;20141;-47
2022/11/18 12:02:57;;;;;;;5.35;1.70;;;;;;;7.30;90.22;99565.84;4949832;28;20051;-42
2022/11/18 12:05:39;;;;;;;6.57;1.20;;;;;;;7.34;89.79;99566.75;4934056;28;20075;-43
2022/11/18 12:08:10;;;;;;;9.63;1.35;;;;;;;7.39;89.47;99583.00;4940814;28;20050;-46
2022/11/18 12:10:43;;;;;;;4.60;0.80;;;;;;;7.43;89.34;99586.66;4941147;28;20043;-48
2022/11/18 12:13:30;;;;;;;4.72;1.40;;;;;;;7.46;89.36;99590.66;4941729;28;20058;-46
2022/11/18 12:16:13;;;;;;;5.50;1.35;;;;;;;7.49;89.05;99599.03;4940316;29;20043;-42
2022/11/18 12:18:42;;;;;;;3.72;1.02;;;;;;;7.52;88.84;99606.56;4939384;28;20053;-42
2022/11/18 12:21:44;;;;;;;7.90;1.10;;;;;;;7.57;88.93;99608.28;4940555;28;20044;-42